Red River Army Depot, Texas
Current Conditions -  °F | °C
As of 3:53 PM on Saturday 25 Oct 2014 (Local Time) from KTXK Reporting Station
Clear Clear  
Wind Chill: 84°   Ceiling: Unl
Heat Index: 85°   Visibility: 10mi
Dew Point: 63°   Wind: 6mph
Humidity: 49%   Direction: 220°SW
Pressure: 30.07"   Gusts: NA
Location:  33.3633°N, 94.2141°W
Report Text: KTXK 252053Z 22005KT 10SM CLR 29/17 A3007 RMK AO2 SLP177 T02890172 56019
Loading
Personal Weather Stations






























Interactive Weather Map New forecast layout! Learn more

10-Day Weather Forecast

Advertisements
Track Severe Weather on mobile